Time;durP1;ratioP1;P1;durP2;ratioP2;P2;SDS_P1;SDS_P2;PMS_P1;PMS_P2;Temp;Humidity;BMP_temperature;BMP_pressure;BME280_temperature;BME280_humidity;BME280_pressure;Samples;Min_cycle;Max_cycle;Signal;HPM_P1;HPM_P2
2021/08/24 00:00:19;;;;;;;1.70;1.40;;;;;;;12.81;100.00;96390.16;1017944;29;20126;-67
2021/08/24 00:00:50;;;;;;;3.40;1.50;;;;;;;12.82;100.00;96386.47;1022650;29;20780;-67
2021/08/24 00:01:21;;;;;;;1.45;1.35;;;;;;;12.79;100.00;96387.00;1025765;28;20273;-68
2021/08/24 00:01:51;;;;;;;1.45;1.10;;;;;;;12.80;100.00;96387.78;1020064;28;20648;-69
2021/08/24 00:02:22;;;;;;;2.22;1.23;;;;;;;12.83;100.00;96387.25;1014482;29;20032;-67
2021/08/24 00:02:53;;;;;;;1.52;1.42;;;;;;;12.84;100.00;96388.84;1010511;29;20089;-68
2021/08/24 00:03:24;;;;;;;1.58;1.48;;;;;;;12.81;100.00;96390.16;1018456;29;20093;-68
2021/08/24 00:03:54;;;;;;;1.95;1.30;;;;;;;12.81;100.00;96384.91;1018503;29;20403;-68
2021/08/24 00:04:24;;;;;;;1.85;1.48;;;;;;;12.75;100.00;96380.66;1022510;29;20043;-67
2021/08/24 00:04:55;;;;;;;2.10;1.30;;;;;;;12.78;100.00;96390.69;1018509;29;20035;-68
2021/08/24 00:05:31;;;;;;;1.50;1.40;;;;;;;12.76;100.00;96387.50;1021955;28;20027;-67
2021/08/24 00:06:01;;;;;;;1.65;1.40;;;;;;;12.77;100.00;96388.28;1021073;29;20068;-67
2021/08/24 00:06:32;;;;;;;1.60;1.20;;;;;;;12.77;100.00;96394.34;1014211;29;20724;-67
2021/08/24 00:07:02;;;;;;;1.50;1.40;;;;;;;12.78;100.00;96385.41;1018132;29;20643;-67
2021/08/24 00:07:33;;;;;;;1.20;1.05;;;;;;;12.76;100.00;96384.88;1022542;29;20055;-67
2021/08/24 00:08:05;;;;;;;3.10;1.23;;;;;;;12.74;100.00;96389.59;1010755;29;20166;-68
2021/08/24 00:08:35;;;;;;;1.40;1.25;;;;;;;12.74;100.00;96390.41;1014177;29;20126;-68
2021/08/24 00:09:06;;;;;;;1.75;1.02;;;;;;;12.76;100.00;96391.97;1018467;29;20302;-67
2021/08/24 00:09:36;;;;;;;1.20;1.10;;;;;;;12.77;100.00;96380.41;1014625;29;20410;-68
2021/08/24 00:10:08;;;;;;;2.33;1.50;;;;;;;12.77;100.00;96394.34;1014844;29;20028;-68
2021/08/24 00:10:44;;;;;;;5.57;1.40;;;;;;;12.74;100.00;96387.78;1022474;29;20490;-68
2021/08/24 00:11:15;;;;;;;1.40;1.27;;;;;;;12.72;100.00;96389.09;1017699;29;20532;-67
2021/08/24 00:11:45;;;;;;;3.78;1.50;;;;;;;12.73;100.00;96388.81;1018463;29;20701;-66
2021/08/24 00:12:16;;;;;;;1.10;1.10;;;;;;;12.76;100.00;96391.97;1013525;29;20024;-68
2021/08/24 00:12:46;;;;;;;1.85;1.20;;;;;;;12.76;100.00;96392.78;1018676;29;20488;-66
2021/08/24 00:13:17;;;;;;;1.48;1.38;;;;;;;12.71;100.00;96384.88;1014189;29;20032;-67
2021/08/24 00:13:48;;;;;;;1.73;1.58;;;;;;;12.76;100.00;96382.25;1024044;28;20150;-66
2021/08/24 00:14:18;;;;;;;2.35;1.50;;;;;;;12.73;100.00;96399.34;1026464;28;20065;-65
2021/08/24 00:14:48;;;;;;;1.55;1.45;;;;;;;12.76;100.00;96392.78;1018480;29;20090;-68
2021/08/24 00:15:19;;;;;;;1.30;1.20;;;;;;;12.74;100.00;96395.69;1024991;28;20037;-66
2021/08/24 00:15:50;;;;;;;2.33;1.50;;;;;;;12.75;100.00;96393.84;1018651;29;20546;-68
2021/08/24 00:16:20;;;;;;;2.17;1.40;;;;;;;12.72;100.00;96383.81;1010708;29;20036;-65
2021/08/24 00:16:54;;;;;;;2.40;1.48;;;;;;;12.76;100.00;96394.63;1026478;28;20085;-68
2021/08/24 00:17:24;;;;;;;4.20;1.65;;;;;;;12.77;100.00;96394.34;1017923;29;20031;-68
2021/08/24 00:17:55;;;;;;;1.25;1.13;;;;;;;12.79;100.00;96396.75;1014455;29;20276;-67
2021/08/24 00:18:25;;;;;;;1.35;1.00;;;;;;;12.79;100.00;96397.53;1018612;29;20764;-68
2021/08/24 00:18:56;;;;;;;1.35;1.25;;;;;;;12.77;100.00;96394.34;1022028;28;20042;-68
2021/08/24 00:19:26;;;;;;;1.50;1.38;;;;;;;12.77;100.00;96390.94;1022302;29;20401;-68
2021/08/24 00:19:57;;;;;;;1.48;1.38;;;;;;;12.70;100.00;96385.91;1014485;29;20627;-69
2021/08/24 00:20:31;;;;;;;1.52;1.30;;;;;;;12.76;100.00;96392.78;1018297;29;20096;-68
2021/08/24 00:21:02;;;;;;;2.22;1.20;;;;;;;12.76;100.00;96392.78;1018464;29;20019;-68
2021/08/24 00:21:32;;;;;;;2.75;1.25;;;;;;;12.78;100.00;96395.94;1016309;29;20296;-68
2021/08/24 00:22:03;;;;;;;1.38;1.27;;;;;;;12.76;100.00;96398.03;1022023;29;20320;-67
2021/08/24 00:22:35;;;;;;;1.40;1.30;;;;;;;12.78;100.00;96384.63;1010777;29;20473;-67
2021/08/24 00:23:08;;;;;;;2.13;1.30;;;;;;;12.76;100.00;96390.13;1020170;29;20019;-68
2021/08/24 00:23:38;;;;;;;1.45;1.35;;;;;;;12.71;100.00;96390.94;1022244;29;20266;-67
2021/08/24 00:24:12;;;;;;;1.38;1.20;;;;;;;12.74;100.00;96389.59;1026284;28;20258;-68
2021/08/24 00:24:42;;;;;;;1.48;1.38;;;;;;;12.70;100.00;96391.16;1018396;29;20023;-68
2021/08/24 00:25:13;;;;;;;1.25;1.17;;;;;;;12.70;100.00;96393.81;1018422;29;20260;-67
2021/08/24 00:25:43;;;;;;;1.40;1.30;;;;;;;12.70;100.00;96388.53;1018192;29;20024;-68
2021/08/24 00:26:14;;;;;;;1.25;1.15;;;;;;;12.69;100.00;96385.13;1018240;29;20486;-68
2021/08/24 00:26:44;;;;;;;1.35;1.25;;;;;;;12.69;100.00;96387.75;1018069;29;20189;-68
2021/08/24 00:27:15;;;;;;;1.95;1.35;;;;;;;12.67;100.00;96394.31;1019212;29;20031;-67
2021/08/24 00:27:45;;;;;;;1.23;1.13;;;;;;;12.66;100.00;96387.47;1022431;28;20366;-68
2021/08/24 00:28:16;;;;;;;1.63;1.08;;;;;;;12.70;100.00;96391.97;1024304;28;20106;-68
2021/08/24 00:28:46;;;;;;;1.95;1.40;;;;;;;12.71;100.00;96390.16;1026386;28;20046;-68
2021/08/24 00:29:17;;;;;;;2.20;1.35;;;;;;;12.66;100.00;96379.59;1022345;28;20106;-68
2021/08/24 00:29:47;;;;;;;1.40;1.10;;;;;;;12.65;100.00;96378.00;1019116;29;20064;-68
2021/08/24 00:30:18;;;;;;;1.50;1.40;;;;;;;12.68;100.00;96391.44;1018332;29;20076;-69
2021/08/24 00:30:48;;;;;;;1.45;1.30;;;;;;;12.69;100.00;96387.75;1018530;29;20385;-69
2021/08/24 00:31:19;;;;;;;1.38;1.23;;;;;;;12.68;100.00;96382.75;1017567;29;20020;-68
2021/08/24 00:31:49;;;;;;;1.38;1.27;;;;;;;12.73;100.00;96390.66;1022500;29;20595;-68
2021/08/24 00:32:20;;;;;;;1.73;1.40;;;;;;;12.74;100.00;96384.31;1018142;29;20070;-68
2021/08/24 00:32:51;;;;;;;6.10;1.63;;;;;;;12.70;100.00;96383.28;1015249;29;20180;-68
2021/08/24 00:33:21;;;;;;;1.33;1.13;;;;;;;12.72;100.00;96386.44;1022450;29;20024;-68
2021/08/24 00:33:52;;;;;;;2.45;1.67;;;;;;;12.74;100.00;96381.69;1022214;29;20126;-67
2021/08/24 00:34:22;;;;;;;2.60;1.38;;;;;;;12.73;100.00;96382.75;1014435;29;20514;-66
2021/08/24 00:34:53;;;;;;;2.80;1.33;;;;;;;12.71;100.00;96384.88;1010174;29;20048;-68
2021/08/24 00:35:23;;;;;;;1.42;1.20;;;;;;;12.68;100.00;96383.53;1010640;29;20465;-66
2021/08/24 00:35:54;;;;;;;1.58;1.48;;;;;;;12.70;100.00;96378.00;1018442;29;20024;-65
2021/08/24 00:36:25;;;;;;;2.05;1.40;;;;;;;12.59;100.00;96371.13;1018215;29;20051;-68
2021/08/24 00:36:55;;;;;;;2.90;1.27;;;;;;;12.68;100.00;96380.91;1018417;29;20020;-67
2021/08/24 00:37:25;;;;;;;1.48;1.25;;;;;;;12.68;100.00;96382.75;1014751;29;20031;-68
2021/08/24 00:37:56;;;;;;;1.50;1.30;;;;;;;12.67;100.00;96381.94;1010169;29;20060;-68
2021/08/24 00:38:27;;;;;;;1.65;1.30;;;;;;;12.67;100.00;96378.53;1010501;29;20020;-67
2021/08/24 00:38:57;;;;;;;1.52;1.40;;;;;;;12.67;100.00;96375.88;1010711;29;20078;-69
2021/08/24 00:39:28;;;;;;;1.13;1.08;;;;;;;12.64;100.00;96376.41;1018529;29;20027;-68
2021/08/24 00:39:58;;;;;;;3.03;1.30;;;;;;;12.66;100.00;96374.31;1013901;29;20028;-68
2021/08/24 00:40:29;;;;;;;1.42;1.23;;;;;;;12.64;100.00;96381.66;1017098;29;20019;-68
2021/08/24 00:41:01;;;;;;;1.55;1.13;;;;;;;12.65;100.00;96370.09;1025304;28;20018;-67
2021/08/24 00:41:32;;;;;;;2.33;1.30;;;;;;;12.64;100.00;96373.78;1020677;29;20508;-70
2021/08/24 00:42:02;;;;;;;1.63;1.30;;;;;;;12.64;100.00;96374.59;1019186;29;20358;-68
2021/08/24 00:42:33;;;;;;;1.33;1.00;;;;;;;12.63;100.00;96377.47;1027093;28;20026;-68
2021/08/24 00:43:05;;;;;;;1.77;1.30;;;;;;;12.55;100.00;96362.97;1020661;29;20055;-66
2021/08/24 00:43:37;;;;;;;2.80;1.30;;;;;;;12.61;100.00;96376.91;1018912;29;20179;-69
2021/08/24 00:44:08;;;;;;;2.17;1.15;;;;;;;12.62;100.00;96379.31;1023394;29;20259;-68
2021/08/24 00:44:38;;;;;;;1.63;1.20;;;;;;;12.60;100.00;96372.72;1023216;28;20279;-68
2021/08/24 00:45:10;;;;;;;1.10;1.10;;;;;;;12.57;100.00;96378.50;1025322;28;20538;-67
2021/08/24 00:45:40;;;;;;;1.23;1.15;;;;;;;12.54;100.00;96371.94;1024942;28;20035;-68
2021/08/24 00:46:18;;;;;;;2.35;1.63;;;;;;;12.54;100.00;96385.09;1023295;28;20278;-67
2021/08/24 00:46:49;;;;;;;1.15;1.05;;;;;;;12.54;100.00;96376.38;1021454;28;20087;-68
2021/08/24 00:47:20;;;;;;;1.50;1.40;;;;;;;12.45;100.00;96369.00;1020194;29;20813;-67
2021/08/24 00:47:51;;;;;;;1.83;1.40;;;;;;;12.46;100.00;96372.41;1020486;29;20032;-68
2021/08/24 00:48:30;;;;;;;1.67;1.40;;;;;;;12.45;100.00;96373.47;1019349;29;20335;-65
2021/08/24 00:49:10;;;;;;;1.92;1.55;;;;;;;12.38;100.00;96368.44;1018219;29;20027;-65
2021/08/24 00:49:40;;;;;;;1.10;1.10;;;;;;;12.49;100.00;96383.22;1015455;29;20020;-68
2021/08/24 00:50:25;;;;;;;1.70;1.60;;;;;;;12.49;100.00;96382.44;1019731;29;20083;-66
2021/08/24 00:50:55;;;;;;;1.65;1.55;;;;;;;12.48;100.00;96376.38;1018780;29;20027;-67
2021/08/24 00:51:26;;;;;;;1.30;1.20;;;;;;;12.46;100.00;96377.69;1016619;29;20844;-65
2021/08/24 00:52:18;;;;;;;1.95;1.42;;;;;;;12.46;100.00;96380.31;1021043;29;20483;-67
2021/08/24 00:52:48;;;;;;;2.00;1.60;;;;;;;12.42;100.00;96380.03;1023376;29;20019;-67
2021/08/24 00:53:20;;;;;;;1.25;1.15;;;;;;;12.44;100.00;96385.84;1022424;28;20275;-67
2021/08/24 00:53:50;;;;;;;1.33;1.23;;;;;;;12.43;100.00;96375.56;1015740;29;20028;-70
2021/08/24 00:54:22;;;;;;;1.50;1.40;;;;;;;12.40;100.00;96376.06;1015500;29;20272;-67
2021/08/24 00:54:54;;;;;;;4.05;1.20;;;;;;;12.36;100.00;96369.75;1015732;29;20020;-67
2021/08/24 00:55:25;;;;;;;1.38;1.27;;;;;;;12.32;100.00;96377.38;1019613;29;20275;-66
2021/08/24 00:55:55;;;;;;;1.45;1.30;;;;;;;12.32;100.00;96377.38;1015286;29;20268;-69
2021/08/24 00:56:26;;;;;;;2.33;1.60;;;;;;;12.34;100.00;96379.72;1015579;29;20064;-67
2021/08/24 00:57:05;;;;;;;3.92;1.30;;;;;;;12.30;100.00;96378.66;1019168;29;20114;-67
2021/08/24 00:57:36;;;;;;;1.75;1.50;;;;;;;12.23;100.00;96368.38;1026385;28;20364;-66
2021/08/24 00:58:07;;;;;;;1.63;1.27;;;;;;;12.31;100.00;96370.53;1019510;29;20254;-66
2021/08/24 00:58:38;;;;;;;1.85;1.55;;;;;;;12.32;100.00;96369.47;1019315;29;20513;-65
2021/08/24 00:59:09;;;;;;;1.33;1.23;;;;;;;12.30;100.00;96378.66;1020483;29;20277;-68
2021/08/24 00:59:40;;;;;;;1.50;1.40;;;;;;;12.30;100.00;96376.03;1015693;29;20114;-67
2021/08/24 01:00:11;;;;;;;2.80;1.67;;;;;;;12.33;100.00;96375.53;1019650;29;20425;-67
2021/08/24 01:00:42;;;;;;;1.65;1.30;;;;;;;12.33;100.00;96378.94;1019197;29;20326;-67
2021/08/24 01:01:13;;;;;;;2.58;1.70;;;;;;;12.30;100.00;96374.19;1018880;29;20024;-67
2021/08/24 01:01:44;;;;;;;1.83;1.48;;;;;;;12.31;100.00;96375.78;1015647;29;20025;-67
2021/08/24 01:02:14;;;;;;;1.52;1.27;;;;;;;12.29;100.00;96379.72;1019504;29;20264;-65
2021/08/24 01:02:45;;;;;;;2.67;1.35;;;;;;;12.26;100.00;96371.28;1018794;29;20713;-68
2021/08/24 01:03:20;;;;;;;2.60;1.45;;;;;;;12.26;100.00;96373.13;1015501;29;20036;-68
2021/08/24 01:03:51;;;;;;;1.40;1.30;;;;;;;12.27;100.00;96374.69;1012351;29;20508;-67
2021/08/24 01:04:22;;;;;;;1.38;1.20;;;;;;;12.23;100.00;96373.63;1018457;29;20346;-67
2021/08/24 01:04:53;;;;;;;2.58;1.30;;;;;;;12.27;100.00;96379.97;1027426;28;20101;-68
2021/08/24 01:05:23;;;;;;;3.90;1.52;;;;;;;12.24;100.00;96373.41;1015251;29;20272;-66
2021/08/24 01:05:57;;;;;;;1.40;1.30;;;;;;;12.23;100.00;96374.44;1018824;29;20067;-66
2021/08/24 01:06:34;;;;;;;2.58;1.67;;;;;;;12.22;100.00;96377.34;1016184;29;20028;-68
2021/08/24 01:07:20;;;;;;;2.40;1.70;;;;;;;12.22;100.00;96379.97;1018148;29;20396;-68
2021/08/24 01:07:54;;;;;;;1.73;1.50;;;;;;;12.20;100.00;96382.84;1026362;28;20290;-67
2021/08/24 01:08:34;;;;;;;1.75;1.60;;;;;;;12.16;100.00;96378.34;1023390;29;20310;-67
2021/08/24 01:09:10;;;;;;;2.20;1.50;;;;;;;12.14;100.00;96376.00;1019518;29;20252;-70
2021/08/24 01:09:43;;;;;;;2.22;1.75;;;;;;;12.12;100.00;96372.81;1015110;29;20084;-68
2021/08/24 01:10:36;;;;;;;2.13;1.63;;;;;;;12.10;100.00;96367.00;1020338;29;20319;-67
2021/08/24 01:11:07;;;;;;;3.65;1.60;;;;;;;12.10;100.00;96374.09;1022915;28;20247;-68
2021/08/24 01:11:40;;;;;;;2.00;1.60;;;;;;;12.09;100.00;96375.94;1030492;28;20344;-67
2021/08/24 01:12:42;;;;;;;1.73;1.60;;;;;;;12.06;100.00;96373.81;1031233;28;20017;-67
2021/08/24 01:13:12;;;;;;;;;;;;;;;12.02;100.00;96373.56;1024183;28;20689;-67
2021/08/24 01:14:08;;;;;;;1.77;1.50;;;;;;;11.98;100.00;96374.31;1023239;29;19902;-67
2021/08/24 01:14:57;;;;;;;1.70;1.60;;;;;;;11.99;100.00;96373.28;1014652;29;20024;-68
2021/08/24 01:15:30;;;;;;;3.53;1.67;;;;;;;11.97;100.00;96376.16;1022652;28;20335;-65
2021/08/24 01:16:36;;;;;;;2.38;1.77;;;;;;;11.98;100.00;96375.13;1032053;28;20245;-64
2021/08/24 01:17:13;;;;;;;1.77;1.67;;;;;;;11.95;100.00;96378.25;1019175;29;20590;-67
2021/08/24 01:18:07;;;;;;;2.15;1.42;;;;;;;11.93;100.00;96379.53;1013156;29;20256;-67
2021/08/24 01:18:45;;;;;;;2.63;2.15;;;;;;;11.90;100.00;96372.94;1027330;28;20274;-68
2021/08/24 01:19:37;;;;;;;2.17;1.45;;;;;;;11.89;100.00;96379.25;1027158;28;20262;-66
2021/08/24 01:20:31;;;;;;;1.95;1.75;;;;;;;11.82;100.00;96370.78;1023264;29;20283;-66
2021/08/24 01:21:04;;;;;;;1.70;1.60;;;;;;;11.89;100.00;96389.00;1022055;28;20275;-68
2021/08/24 01:22:12;;;;;;;1.95;1.73;;;;;;;11.86;100.00;96382.41;1026428;28;20262;-66
2021/08/24 01:23:16;;;;;;;6.50;2.28;;;;;;;11.84;100.00;96379.25;1028593;28;20325;-68
2021/08/24 01:24:06;;;;;;;1.80;1.70;;;;;;;11.82;100.00;96380.50;1023402;29;20361;-68
2021/08/24 01:24:40;;;;;;;3.58;1.80;;;;;;;11.80;100.00;96380.75;1022488;28;20324;-66
2021/08/24 01:25:17;;;;;;;2.20;2.00;;;;;;;11.77;100.00;96378.66;1020801;29;20027;-68
2021/08/24 01:25:56;;;;;;;3.17;2.20;;;;;;;11.74;100.00;96376.53;1019193;29;20263;-66
2021/08/24 01:26:41;;;;;;;1.92;1.70;;;;;;;11.79;100.00;96379.19;1021278;29;20279;-66
2021/08/24 01:27:13;;;;;;;3.63;2.00;;;;;;;11.75;100.00;96383.38;1019346;29;20298;-67
2021/08/24 01:28:03;;;;;;;3.58;1.67;;;;;;;11.76;100.00;96385.72;1019412;29;20267;-68
2021/08/24 01:28:59;;;;;;;3.00;1.83;;;;;;;11.73;100.00;96388.88;1022984;29;20337;-65
2021/08/24 01:29:56;;;;;;;3.92;2.40;;;;;;;11.70;100.00;96380.69;1027214;28;20370;-66
2021/08/24 01:31:04;;;;;;;3.60;1.70;;;;;;;11.68;100.00;96388.84;1017986;29;20352;-67
2021/08/24 01:31:53;;;;;;;4.10;1.95;;;;;;;11.69;100.00;96390.41;1024564;28;20243;-67
2021/08/24 01:32:27;;;;;;;2.22;1.77;;;;;;;11.67;100.00;96394.34;1034079;28;20265;-66
2021/08/24 01:33:10;;;;;;;2.85;1.92;;;;;;;11.67;100.00;96391.72;1030961;28;20264;-67
2021/08/24 01:34:02;;;;;;;2.80;2.22;;;;;;;11.71;100.00;96387.56;1027306;28;20782;-68
2021/08/24 01:34:42;;;;;;;2.30;2.05;;;;;;;11.70;100.00;96385.94;1027126;28;20296;-69
2021/08/24 01:35:23;;;;;;;5.10;1.80;;;;;;;11.67;100.00;96383.81;1012480;29;20861;-67
2021/08/24 01:36:30;;;;;;;3.33;2.20;;;;;;;11.68;100.00;96388.06;1015343;29;20260;-67
2021/08/24 01:37:03;;;;;;;2.70;1.92;;;;;;;11.67;100.00;96376.75;1021235;29;20388;-67
2021/08/24 01:37:43;;;;;;;2.80;2.03;;;;;;;11.67;100.00;96386.44;1025447;28;20289;-67
2021/08/24 01:38:21;;;;;;;2.00;1.80;;;;;;;11.59;100.00;96376.41;1028300;28;20269;-67
2021/08/24 01:39:06;;;;;;;3.75;1.80;;;;;;;11.67;100.00;96381.19;1031155;28;20268;-68
2021/08/24 01:39:45;;;;;;;3.63;1.80;;;;;;;11.63;100.00;96377.50;1035086;28;20665;-67
2021/08/24 01:40:17;;;;;;;2.05;1.77;;;;;;;11.65;100.00;96383.31;1018836;29;20719;-68
2021/08/24 01:41:08;;;;;;;3.13;2.00;;;;;;;11.64;100.00;96386.97;1022947;29;20278;-68
2021/08/24 01:41:58;;;;;;;3.13;2.00;;;;;;;11.64;100.00;96392.25;1022337;29;20390;-67
2021/08/24 01:42:29;;;;;;;2.72;1.90;;;;;;;11.59;100.00;96384.31;1020307;29;20040;-67
2021/08/24 01:42:59;;;;;;;3.80;1.92;;;;;;;11.57;100.00;96388.00;1027097;28;20420;-68
2021/08/24 01:43:40;;;;;;;2.75;1.67;;;;;;;11.57;100.00;96384.56;1024569;28;20031;-67
2021/08/24 01:44:14;;;;;;;;;;;;;;;11.59;100.00;96389.56;1022629;28;20114;-67
2021/08/24 01:45:00;;;;;;;2.75;2.28;;;;;;;11.58;100.00;96383.53;1024026;28;20394;-67
2021/08/24 01:45:35;;;;;;;2.10;1.80;;;;;;;11.55;100.00;96384.81;1026780;28;20349;-69
2021/08/24 01:46:12;;;;;;;3.10;1.80;;;;;;;11.53;100.00;96386.88;1022242;29;20934;-68
2021/08/24 01:46:58;;;;;;;3.55;1.80;;;;;;;11.53;100.00;96383.47;1018580;29;20263;-68
2021/08/24 01:47:49;;;;;;;2.90;2.22;;;;;;;11.51;100.00;96383.72;1018735;29;20262;-68
2021/08/24 01:48:25;;;;;;;3.13;1.90;;;;;;;11.43;100.00;96373.69;1027654;28;20862;-67
2021/08/24 01:48:58;;;;;;;2.65;1.83;;;;;;;11.50;100.00;96387.41;1022919;29;20275;-68
2021/08/24 01:49:35;;;;;;;2.25;1.98;;;;;;;11.51;100.00;96386.38;1018999;29;20631;-68
2021/08/24 01:50:12;;;;;;;3.08;1.77;;;;;;;11.54;100.00;96383.22;1018792;29;20267;-67
2021/08/24 01:50:58;;;;;;;2.38;2.00;;;;;;;11.54;100.00;96388.50;1015057;29;20311;-68
2021/08/24 01:51:35;;;;;;;3.42;2.10;;;;;;;11.56;100.00;96390.84;1021919;29;20270;-68
2021/08/24 01:52:11;;;;;;;3.63;2.28;;;;;;;11.53;100.00;96373.75;1014464;29;20279;-67
2021/08/24 01:52:46;;;;;;;2.15;1.83;;;;;;;11.62;100.00;96381.19;1011204;29;20341;-68
2021/08/24 01:53:19;;;;;;;4.30;2.20;;;;;;;11.63;100.00;96380.91;1022462;29;20386;-67
2021/08/24 01:54:01;;;;;;;2.58;2.10;;;;;;;11.59;100.00;96377.22;1026749;28;20265;-67
2021/08/24 01:54:35;;;;;;;2.03;1.50;;;;;;;11.62;100.00;96381.19;1022992;29;20251;-68
2021/08/24 01:55:09;;;;;;;2.20;2.00;;;;;;;11.61;100.00;96382.22;1018446;29;20275;-67
2021/08/24 01:55:43;;;;;;;1.90;1.80;;;;;;;11.59;100.00;96379.84;1014724;29;20388;-67
2021/08/24 01:56:20;;;;;;;2.33;1.88;;;;;;;11.61;100.00;96384.84;1018564;29;20303;-67
2021/08/24 01:56:51;;;;;;;2.40;2.15;;;;;;;11.62;100.00;96384.59;1023703;28;20271;-67
2021/08/24 01:57:38;;;;;;;3.85;2.40;;;;;;;11.59;100.00;96379.84;1023430;28;20278;-68
2021/08/24 01:58:13;;;;;;;3.33;2.13;;;;;;;11.60;100.00;96385.88;1020713;29;20048;-67
2021/08/24 01:59:03;;;;;;;2.33;1.60;;;;;;;11.61;100.00;96384.84;1022011;29;20270;-68
2021/08/24 01:59:41;;;;;;;2.10;1.73;;;;;;;11.60;100.00;96378.78;1011119;29;20284;-67
2021/08/24 02:00:11;;;;;;;3.30;2.20;;;;;;;11.53;100.00;96367.69;1010931;29;20295;-68
2021/08/24 02:00:43;;;;;;;2.00;1.75;;;;;;;11.62;100.00;96378.53;1010792;29;20635;-68
2021/08/24 02:01:16;;;;;;;3.35;1.70;;;;;;;11.62;100.00;96378.53;1013864;29;20633;-68
2021/08/24 02:02:27;;;;;;;3.03;2.13;;;;;;;11.65;100.00;96388.56;1018596;29;20777;-68
2021/08/24 02:03:00;;;;;;;4.70;2.40;;;;;;;11.66;100.00;96382.25;1009891;29;20273;-66
2021/08/24 02:03:38;;;;;;;2.60;1.90;;;;;;;11.66;100.00;96379.63;1014757;29;20087;-67
2021/08/24 02:04:12;;;;;;;3.47;1.90;;;;;;;11.67;100.00;96387.28;1010776;29;20311;-68
2021/08/24 02:05:12;;;;;;;4.50;2.55;;;;;;;11.71;100.00;96388.34;1006989;29;20269;-68
2021/08/24 02:05:49;;;;;;;2.28;1.95;;;;;;;11.67;100.00;96381.19;1012883;29;20262;-69
2021/08/24 02:06:24;;;;;;;2.03;1.83;;;;;;;11.62;100.00;96368.03;1020230;28;20088;-67
2021/08/24 02:06:54;;;;;;;2.30;1.90;;;;;;;11.68;100.00;96374.91;1021158;29;20247;-67
2021/08/24 02:07:25;;;;;;;3.33;2.10;;;;;;;11.70;100.00;96380.69;1022931;29;20278;-68
2021/08/24 02:08:00;;;;;;;2.30;2.10;;;;;;;11.70;100.00;96381.50;1026524;28;20508;-67
2021/08/24 02:08:31;;;;;;;2.00;1.80;;;;;;;11.69;100.00;96379.13;1022345;29;20150;-67
2021/08/24 02:09:05;;;;;;;7.05;2.17;;;;;;;11.65;100.00;96383.31;1018999;29;20681;-67
2021/08/24 02:09:42;;;;;;;4.97;2.03;;;;;;;11.67;100.00;96381.19;1022739;29;20779;-68
2021/08/24 02:10:15;;;;;;;2.53;1.95;;;;;;;11.66;100.00;96388.28;1022142;29;20278;-68
2021/08/24 02:10:46;;;;;;;3.38;1.90;;;;;;;11.64;100.00;96376.47;1022950;29;20273;-68
2021/08/24 02:11:16;;;;;;;4.57;2.03;;;;;;;11.61;100.00;96380.38;1026360;28;21129;-68
2021/08/24 02:11:47;;;;;;;2.60;2.05;;;;;;;11.64;100.00;96376.47;1026839;28;20027;-67
2021/08/24 02:12:19;;;;;;;8.05;2.55;;;;;;;11.62;100.00;96379.34;1026216;28;20028;-68
2021/08/24 02:12:51;;;;;;;7.30;2.30;;;;;;;11.62;100.00;96383.81;1018982;29;20094;-68
2021/08/24 02:13:21;;;;;;;3.83;2.22;;;;;;;11.59;100.00;96384.31;1018885;29;20275;-67
2021/08/24 02:13:51;;;;;;;3.83;2.13;;;;;;;11.57;100.00;96379.31;1016012;29;20702;-67
2021/08/24 02:14:22;;;;;;;3.08;2.13;;;;;;;11.59;100.00;96384.31;1014963;29;20027;-67
2021/08/24 02:14:52;;;;;;;4.00;2.17;;;;;;;11.57;100.00;96388.00;1022675;29;20019;-67
2021/08/24 02:15:28;;;;;;;3.38;2.50;;;;;;;11.60;100.00;96380.63;1023470;28;20090;-67
2021/08/24 02:15:59;;;;;;;2.53;2.05;;;;;;;11.56;100.00;96380.34;1022987;29;20011;-68
2021/08/24 02:16:29;;;;;;;3.92;2.47;;;;;;;11.59;100.00;96386.94;1018830;29;20271;-67
2021/08/24 02:17:01;;;;;;;2.53;2.30;;;;;;;11.56;100.00;96381.13;1019363;29;20347;-67
2021/08/24 02:17:32;;;;;;;4.70;2.50;;;;;;;11.55;100.00;96384.81;1022878;29;20050;-67
2021/08/24 02:18:02;;;;;;;3.22;2.35;;;;;;;11.54;100.00;96383.22;1011044;29;20664;-68
2021/08/24 02:18:37;;;;;;;4.20;2.10;;;;;;;11.53;100.00;96384.25;1018818;29;20036;-68
2021/08/24 02:19:18;;;;;;;2.45;1.90;;;;;;;11.54;100.00;96380.59;1018516;29;20780;-69
2021/08/24 02:20:00;;;;;;;2.83;2.05;;;;;;;11.54;100.00;96383.22;1017502;29;20331;-67
2021/08/24 02:20:34;;;;;;;2.28;2.08;;;;;;;11.52;100.00;96374.81;1017407;29;20278;-67
2021/08/24 02:21:11;;;;;;;5.50;2.67;;;;;;;11.49;100.00;96377.94;1011106;29;20997;-67
2021/08/24 02:21:47;;;;;;;3.33;2.40;;;;;;;11.47;100.00;96376.63;1022306;29;20779;-68
2021/08/24 02:22:21;;;;;;;5.60;2.70;;;;;;;11.52;100.00;96372.16;1028553;28;20980;-67
2021/08/24 02:22:55;;;;;;;2.55;2.35;;;;;;;11.50;100.00;96381.34;1022935;29;20768;-68
2021/08/24 02:23:26;;;;;;;4.40;2.50;;;;;;;11.49;100.00;96383.19;1014996;29;20280;-68
2021/08/24 02:24:00;;;;;;;3.47;2.20;;;;;;;11.47;100.00;96377.41;1020265;29;20706;-68
2021/08/24 02:24:34;;;;;;;2.60;2.40;;;;;;;11.48;100.00;96375.56;1022726;29;20768;-69
2021/08/24 02:25:11;;;;;;;2.65;2.35;;;;;;;11.44;100.00;96377.13;1026735;28;20671;-68
2021/08/24 02:25:43;;;;;;;2.53;2.25;;;;;;;11.38;100.00;96367.59;1022718;29;20273;-68
2021/08/24 02:26:13;;;;;;;2.70;2.50;;;;;;;11.42;100.00;96377.34;1022703;29;20624;-67
2021/08/24 02:26:44;;;;;;;2.92;2.63;;;;;;;11.41;100.00;96378.41;1014529;29;20356;-68
2021/08/24 02:27:18;;;;;;;3.03;2.35;;;;;;;11.41;100.00;96378.41;1018840;29;20023;-67
2021/08/24 02:27:52;;;;;;;5.43;2.60;;;;;;;11.39;100.00;96377.06;1018822;29;20275;-67
2021/08/24 02:28:49;;;;;;;5.15;2.50;;;;;;;11.37;100.00;96372.06;1022923;29;20354;-68
2021/08/24 02:29:20;;;;;;;2.75;2.55;;;;;;;11.37;100.00;96377.34;1021687;28;20287;-68
2021/08/24 02:29:50;;;;;;;4.18;2.60;;;;;;;11.36;100.00;96373.09;1022408;28;21073;-68
2021/08/24 02:30:21;;;;;;;2.53;2.00;;;;;;;11.35;100.00;96374.16;1018830;29;20036;-68
2021/08/24 02:30:58;;;;;;;3.60;2.38;;;;;;;11.31;100.00;96365.19;1018500;29;20023;-67
2021/08/24 02:31:40;;;;;;;3.30;2.40;;;;;;;11.33;100.00;96371.78;1014286;29;20016;-68
2021/08/24 02:32:17;;;;;;;6.45;2.97;;;;;;;11.32;100.00;96364.13;1014982;29;20308;-68
2021/08/24 02:32:49;;;;;;;2.50;2.30;;;;;;;11.35;100.00;96379.41;1021529;29;20675;-68
2021/08/24 02:33:20;;;;;;;2.58;2.38;;;;;;;11.33;100.00;96374.41;1018707;29;20717;-68
2021/08/24 02:34:03;;;;;;;3.13;2.13;;;;;;;11.26;100.00;96363.31;1022922;29;20286;-68
2021/08/24 02:34:47;;;;;;;3.53;2.42;;;;;;;11.31;100.00;96378.34;1022761;29;20015;-68
2021/08/24 02:35:26;;;;;;;3.58;2.45;;;;;;;11.31;100.00;96379.13;1014864;29;20330;-68
2021/08/24 02:35:57;;;;;;;4.32;2.60;;;;;;;11.24;100.00;96362.00;1012438;29;20269;-68
2021/08/24 02:36:28;;;;;;;5.65;2.50;;;;;;;11.26;100.00;96371.19;1015060;29;20276;-67
2021/08/24 02:37:08;;;;;;;3.30;2.15;;;;;;;11.26;100.00;96365.13;1018681;29;20303;-67
2021/08/24 02:37:44;;;;;;;;;;;;;;;11.32;100.00;96375.44;1032369;28;20067;-69
2021/08/24 02:38:21;;;;;;;4.38;2.30;;;;;;;11.33;100.00;96376.22;1022777;29;19914;-68
2021/08/24 02:39:00;;;;;;;2.92;2.50;;;;;;;11.34;100.00;96377.84;1017252;29;20310;-67
2021/08/24 02:39:35;;;;;;;2.80;2.53;;;;;;;11.35;100.00;96379.41;1015589;29;20405;-68
2021/08/24 02:40:17;;;;;;;3.08;2.35;;;;;;;11.36;100.00;96380.97;1018832;29;20110;-68
2021/08/24 02:40:56;;;;;;;5.07;2.30;;;;;;;11.35;100.00;96384.66;1018710;29;20275;-67
2021/08/24 02:41:39;;;;;;;2.85;2.30;;;;;;;11.36;100.00;96380.97;1014017;29;20711;-69
2021/08/24 02:42:19;;;;;;;4.82;2.60;;;;;;;11.38;100.00;96378.91;1018767;29;20263;-69
2021/08/24 02:43:13;;;;;;;2.90;2.58;;;;;;;11.38;100.00;96386.78;1024723;28;20266;-68
2021/08/24 02:43:59;;;;;;;3.90;2.60;;;;;;;11.40;100.00;96378.63;1022801;29;20338;-68
2021/08/24 02:44:46;;;;;;;2.33;2.13;;;;;;;11.33;100.00;96368.34;1015531;29;20264;-67
2021/08/24 02:45:45;;;;;;;2.63;2.30;;;;;;;11.40;100.00;96378.63;1010999;29;20769;-67
2021/08/24 02:46:25;;;;;;;6.07;3.10;;;;;;;11.45;100.00;96384.75;1019710;28;20273;-67
2021/08/24 02:46:55;;;;;;;4.18;2.50;;;;;;;11.41;100.00;96378.41;1020221;29;20263;-67